Time;durP1;ratioP1;P1;durP2;ratioP2;P2;SDS_P1;SDS_P2;PMS_P1;PMS_P2;Temp;Humidity;BMP_temperature;BMP_pressure;BME280_temperature;BME280_humidity;BME280_pressure;Samples;Min_cycle;Max_cycle;Signal;HPM_P1;HPM_P2
2021/04/11 00:01:54;;;;;;;19.07;9.20;;;8.50;93.10;;;;;;4983792;28;20059;-89
2021/04/11 00:04:20;;;;;;;19.87;8.40;;;8.50;93.10;;;;;;4984138;28;20011;-90
2021/04/11 00:06:46;;;;;;;17.57;9.10;;;8.60;93.20;;;;;;4982911;28;20043;-89
2021/04/11 00:09:11;;;;;;;17.30;8.40;;;8.60;93.70;;;;;;4983551;28;20022;-90
2021/04/11 00:11:37;;;;;;;18.10;7.67;;;8.60;93.20;;;;;;4983786;28;20023;-89
2021/04/11 00:14:06;;;;;;;19.80;8.40;;;8.70;93.20;;;;;;4983833;28;20015;-90
2021/04/11 00:16:31;;;;;;;18.38;8.02;;;8.70;94.10;;;;;;4983566;28;20014;-87
2021/04/11 00:18:57;;;;;;;17.83;7.77;;;8.80;93.20;;;;;;4983619;28;20039;-88
2021/04/11 00:21:22;;;;;;;17.80;8.07;;;8.80;93.90;;;;;;4983530;28;20018;-89
2021/04/11 00:23:48;;;;;;;17.07;7.93;;;8.80;93.70;;;;;;4983689;28;20010;-89
2021/04/11 00:26:14;;;;;;;18.00;8.17;;;8.90;93.40;;;;;;4983625;28;20015;-90
2021/04/11 00:28:39;;;;;;;18.23;7.93;;;8.80;93.40;;;;;;4983416;28;20015;-89
2021/04/11 00:31:05;;;;;;;17.27;7.03;;;8.90;93.40;;;;;;4983414;28;20042;-90
2021/04/11 00:33:38;;;;;;;16.93;6.87;;;8.90;92.80;;;;;;4983467;28;20011;-88
2021/04/11 00:36:06;;;;;;;16.10;7.10;;;9.00;93.30;;;;;;4983513;28;20011;-89
2021/04/11 00:38:32;;;;;;;15.98;7.20;;;9.00;92.90;;;;;;4983057;28;20019;-89
2021/04/11 00:41:04;;;;;;;18.07;6.90;;;9.00;93.20;;;;;;4983309;28;20015;-89
2021/04/11 00:43:30;;;;;;;16.37;6.53;;;9.00;93.20;;;;;;4983319;28;20011;-90
2021/04/11 00:46:11;;;;;;;17.97;6.30;;;9.00;92.70;;;;;;4983367;28;20015;-91
2021/04/11 00:48:37;;;;;;;12.47;5.47;;;9.00;92.70;;;;;;4982968;28;20026;-89
2021/04/11 00:51:10;;;;;;;14.97;6.03;;;9.00;93.10;;;;;;4982971;28;20055;-91
2021/04/11 00:53:35;;;;;;;15.73;6.27;;;9.00;92.60;;;;;;4983175;28;20022;-89
2021/04/11 00:56:03;;;;;;;14.87;6.13;;;9.00;93.10;;;;;;4983271;28;20015;-89
2021/04/11 00:58:29;;;;;;;15.37;5.90;;;9.10;93.30;;;;;;4982959;28;20022;-90
2021/04/11 01:00:55;;;;;;;15.97;6.00;;;9.10;92.90;;;;;;4983133;28;20039;-91
2021/04/11 01:03:31;;;;;;;16.60;6.40;;;9.10;92.90;;;;;;4982928;28;20019;-92
2021/04/11 01:05:57;;;;;;;13.03;5.53;;;9.10;92.80;;;;;;4983084;28;20018;-90
2021/04/11 01:08:27;;;;;;;17.43;6.20;;;9.10;93.40;;;;;;4982900;28;20086;-92
2021/04/11 01:11:10;;;;;;;13.03;5.30;;;9.00;93.40;;;;;;4982975;28;20031;-89
2021/04/11 01:13:42;;;;;;;15.37;6.20;;;9.10;93.30;;;;;;4983029;28;20019;-91
2021/04/11 01:16:09;;;;;;;15.30;6.00;;;9.10;92.90;;;;;;4982958;28;20019;-90
2021/04/11 01:18:35;;;;;;;13.83;5.27;;;9.10;92.50;;;;;;4984740;28;20022;-90
2021/04/11 01:21:06;;;;;;;14.93;5.43;;;9.20;92.60;;;;;;4986843;28;20082;-90
2021/04/11 01:23:57;;;;;;;15.57;6.47;;;9.20;92.60;;;;;;4986969;28;20013;-90
2021/04/11 01:26:23;;;;;;;15.07;5.43;;;9.20;92.90;;;;;;4987000;28;20011;-90
2021/04/11 01:28:49;;;;;;;14.00;5.60;;;9.20;93.30;;;;;;4986495;28;20018;-90
2021/04/11 01:31:16;;;;;;;13.17;5.40;;;9.20;92.70;;;;;;4986648;28;20034;-91
2021/04/11 01:33:46;;;;;;;15.80;5.80;;;9.20;92.80;;;;;;4986859;28;20011;-90
2021/04/11 01:36:14;;;;;;;14.00;5.67;;;9.20;92.70;;;;;;4986762;28;20030;-91
2021/04/11 01:38:42;;;;;;;14.23;5.35;;;9.20;93.00;;;;;;4986360;28;20042;-92
2021/04/11 01:41:33;;;;;;;15.57;5.87;;;9.20;92.60;;;;;;4986540;28;20090;-90
2021/04/11 01:43:59;;;;;;;12.83;5.20;;;9.20;92.70;;;;;;4986525;28;20035;-92
2021/04/11 01:46:26;;;;;;;12.40;5.63;;;9.20;92.60;;;;;;4986651;28;20166;-91
2021/04/11 01:48:52;;;;;;;13.47;5.87;;;9.20;93.00;;;;;;4986263;28;20015;-90
2021/04/11 01:51:22;;;;;;;15.47;5.77;;;9.20;92.60;;;;;;4986286;28;20026;-89
2021/04/11 01:53:48;;;;;;;14.87;5.80;;;9.20;92.60;;;;;;4986389;28;20037;-90
2021/04/11 01:56:16;;;;;;;14.50;6.17;;;9.20;92.70;;;;;;4986325;28;20019;-93
2021/04/11 01:58:42;;;;;;;14.23;5.43;;;9.20;92.70;;;;;;4986154;28;20042;-90
2021/04/11 02:01:20;;;;;;;14.93;5.90;;;9.30;93.20;;;;;;4986084;28;20023;-91
2021/04/11 02:03:51;;;;;;;13.47;5.60;;;9.20;92.60;;;;;;4986145;28;20089;-91
2021/04/11 02:06:17;;;;;;;15.57;6.00;;;9.20;93.40;;;;;;4985900;28;20010;-93
2021/04/11 02:08:48;;;;;;;13.53;5.77;;;9.20;92.80;;;;;;4985878;28;20035;-90
2021/04/11 02:11:13;;;;;;;13.20;6.07;;;9.20;93.20;;;;;;4985795;28;20023;-89
2021/04/11 02:13:40;;;;;;;14.93;6.17;;;9.30;93.10;;;;;;4984450;28;20043;-89
2021/04/11 02:16:08;;;;;;;16.90;6.10;;;9.20;93.00;;;;;;4985964;28;20039;-91
2021/04/11 02:18:35;;;;;;;15.57;6.13;;;9.20;93.00;;;;;;4985545;28;20046;-92
2021/04/11 02:21:07;;;;;;;15.53;5.77;;;9.30;92.90;;;;;;4985603;28;20011;-92
2021/04/11 02:23:33;;;;;;;15.77;6.40;;;9.20;93.20;;;;;;4985833;28;20023;-90
2021/04/11 02:25:59;;;;;;;15.43;6.70;;;9.20;93.30;;;;;;4985939;28;20015;-90
2021/04/11 02:28:29;;;;;;;15.50;6.13;;;9.20;93.40;;;;;;4985593;28;20050;-91
2021/04/11 02:31:18;;;;;;;16.13;6.53;;;9.20;93.10;;;;;;4984360;28;20047;-90
2021/04/11 02:34:01;;;;;;;15.90;5.70;;;9.20;93.50;;;;;;4985459;28;20026;-90
2021/04/11 02:36:33;;;;;;;17.50;6.77;;;9.20;93.70;;;;;;4985525;28;20023;-90
2021/04/11 02:38:59;;;;;;;17.67;6.83;;;9.20;93.50;;;;;;4985131;28;20043;-90
2021/04/11 02:41:26;;;;;;;16.33;6.37;;;9.20;93.40;;;;;;4985478;28;20116;-90
2021/04/11 02:43:53;;;;;;;15.13;6.07;;;9.20;93.70;;;;;;4985169;28;20019;-92
2021/04/11 02:46:19;;;;;;;14.57;6.53;;;9.20;92.70;;;;;;4985335;28;20082;-90
2021/04/11 02:48:46;;;;;;;16.47;7.53;;;9.30;93.10;;;;;;4985144;28;20033;-92
2021/04/11 02:51:12;;;;;;;17.37;8.30;;;9.20;92.70;;;;;;4985176;28;20076;-90
2021/04/11 02:53:40;;;;;;;15.63;7.60;;;9.20;93.00;;;;;;4985280;28;20083;-91
2021/04/11 02:56:06;;;;;;;16.47;8.33;;;9.20;92.90;;;;;;4985094;28;20037;-90
2021/04/11 02:58:32;;;;;;;15.57;8.17;;;9.20;92.70;;;;;;4984918;28;20042;-91
2021/04/11 03:01:02;;;;;;;17.73;8.87;;;9.20;93.30;;;;;;4985013;28;20025;-91
2021/04/11 03:03:28;;;;;;;15.97;8.10;;;9.20;93.10;;;;;;4985121;28;20022;-90
2021/04/11 03:06:02;;;;;;;17.17;8.37;;;9.20;93.20;;;;;;4985022;28;20011;-90
2021/04/11 03:08:32;;;;;;;18.93;8.30;;;9.20;93.10;;;;;;4984529;28;20021;-91
2021/04/11 03:11:22;;;;;;;16.20;7.13;;;9.30;93.40;;;;;;4984604;28;20055;-91
2021/04/11 03:13:48;;;;;;;16.70;8.30;;;9.20;92.80;;;;;;4984780;28;20019;-90
2021/04/11 03:16:14;;;;;;;17.00;7.63;;;9.20;92.80;;;;;;4985000;28;20043;-90
2021/04/11 03:18:41;;;;;;;15.93;7.47;;;9.30;93.20;;;;;;4984440;28;20019;-91
2021/04/11 03:21:09;;;;;;;15.67;7.20;;;9.30;92.70;;;;;;4984548;28;20030;-92
2021/04/11 03:23:37;;;;;;;15.98;7.25;;;9.30;92.70;;;;;;4984879;28;20094;-91
2021/04/11 03:26:13;;;;;;;16.67;7.50;;;9.30;93.30;;;;;;4984568;28;20018;-89
2021/04/11 03:28:47;;;;;;;16.67;8.10;;;9.30;92.90;;;;;;4984392;28;20022;-89
2021/04/11 03:31:22;;;;;;;16.07;7.37;;;9.30;93.00;;;;;;4984274;28;20090;-91
2021/04/11 03:33:52;;;;;;;15.70;7.50;;;9.30;93.00;;;;;;4984336;28;20036;-92
2021/04/11 03:36:19;;;;;;;;;;;9.30;92.80;;;;;;4984829;28;20019;-91
2021/04/11 03:38:46;;;;;;;15.47;7.20;;;9.30;94.00;;;;;;4984262;28;19929;-91
2021/04/11 03:41:12;;;;;;;17.10;7.47;;;9.20;92.90;;;;;;4984049;28;20018;-89
2021/04/11 03:43:46;;;;;;;16.03;7.60;;;9.30;92.80;;;;;;4984391;28;20046;-90
2021/04/11 03:46:41;;;;;;;16.90;7.67;;;9.30;93.00;;;;;;4984285;28;20019;-91
2021/04/11 03:49:28;;;;;;;17.03;7.73;;;9.30;94.10;;;;;;4982550;28;20043;-90
2021/04/11 03:51:58;;;;;;;18.60;7.87;;;9.30;93.00;;;;;;4984025;28;20058;-91
2021/04/11 03:54:28;;;;;;;16.13;7.10;;;9.30;93.10;;;;;;4984287;28;20019;-90
2021/04/11 03:57:07;;;;;;;17.37;8.00;;;9.30;93.10;;;;;;4984000;28;20026;-91
2021/04/11 03:59:38;;;;;;;15.10;7.50;;;9.30;93.50;;;;;;4983854;28;20015;-89
2021/04/11 04:02:06;;;;;;;14.50;6.70;;;9.30;93.10;;;;;;4983980;28;20021;-90
2021/04/11 04:04:33;;;;;;;15.60;6.73;;;9.30;92.70;;;;;;4984019;28;20018;-91
2021/04/11 04:07:18;;;;;;;16.37;7.23;;;9.30;92.60;;;;;;4983914;28;20010;-90
2021/04/11 04:09:57;;;;;;;16.47;7.33;;;9.30;92.90;;;;;;4983556;28;20030;-92
2021/04/11 04:12:50;;;;;;;15.73;7.20;;;9.30;93.50;;;;;;4983959;28;20007;-91
2021/04/11 04:15:54;;;;;;;15.07;7.23;;;9.30;93.40;;;;;;4983659;28;20018;-91
2021/04/11 04:18:59;;;;;;;15.37;7.03;;;9.30;92.90;;;;;;4983859;28;20011;-91
2021/04/11 04:21:33;;;;;;;17.80;7.90;;;9.30;93.10;;;;;;4935330;28;20027;-89
2021/04/11 04:24:10;;;;;;;17.93;7.77;;;9.30;92.80;;;;;;4983760;28;20021;-91
2021/04/11 04:26:53;;;;;;;16.37;8.20;;;9.40;92.60;;;;;;4983528;28;20011;-92
2021/04/11 04:30:12;;;;;;;17.10;8.07;;;9.40;92.70;;;;;;4983390;28;20118;-91
2021/04/11 04:33:09;;;;;;;17.77;9.00;;;9.30;93.40;;;;;;4925868;29;20017;-92
2021/04/11 04:35:47;;;;;;;19.83;10.63;;;9.30;93.10;;;;;;4925497;29;20052;-91
2021/04/11 04:38:19;;;;;;;19.77;11.13;;;9.30;92.90;;;;;;4975825;28;20122;-90
2021/04/11 04:40:53;;;;;;;20.83;11.87;;;9.20;92.80;;;;;;4983367;28;20039;-92
2021/04/11 04:43:33;;;;;;;19.67;11.43;;;9.20;92.80;;;;;;4983118;28;20099;-92
2021/04/11 04:46:34;;;;;;;20.90;11.87;;;9.10;92.90;;;;;;4976247;28;20015;-91
2021/04/11 04:49:15;;;;;;;19.47;11.30;;;9.10;93.20;;;;;;4980481;28;20022;-91
2021/04/11 04:51:53;;;;;;;18.13;10.17;;;9.00;93.10;;;;;;4982900;28;20023;-90
2021/04/11 04:54:47;;;;;;;19.20;10.53;;;9.00;93.10;;;;;;4982764;28;20030;-91
2021/04/11 04:57:12;;;;;;;17.30;9.63;;;8.90;93.40;;;;;;4983081;28;20030;-91
2021/04/11 04:59:49;;;;;;;18.93;9.87;;;8.90;93.30;;;;;;4982984;28;20019;-89
2021/04/11 05:02:15;;;;;;;17.90;9.83;;;8.80;93.20;;;;;;4982961;28;20050;-90
2021/04/11 05:04:55;;;;;;;13.57;6.77;;;8.80;93.30;;;;;;4983066;28;20025;-91
2021/04/11 05:07:23;;;;;;;;;;;8.70;93.30;;;;;;4983504;28;20047;-90
2021/04/11 05:10:15;;;;;;;12.17;5.67;;;8.70;93.30;;;;;;4982666;28;19937;-90
2021/04/11 05:12:54;;;;;;;10.63;5.17;;;8.60;93.60;;;;;;4982529;28;20022;-91
2021/04/11 05:15:36;;;;;;;11.55;5.05;;;8.60;93.40;;;;;;4982844;28;20015;-90
2021/04/11 05:18:07;;;;;;;10.20;4.90;;;8.60;93.40;;;;;;4982831;28;20015;-90
2021/04/11 05:20:39;;;;;;;11.27;5.07;;;8.50;93.40;;;;;;4982665;28;20018;-90
2021/04/11 05:23:17;;;;;;;10.80;4.80;;;8.50;93.40;;;;;;4982795;28;20039;-91
2021/04/11 05:26:00;;;;;;;12.70;4.90;;;8.50;93.40;;;;;;4982883;28;20015;-90
2021/04/11 05:28:58;;;;;;;12.07;4.93;;;8.50;93.40;;;;;;4982976;28;20011;-92
2021/04/11 05:31:28;;;;;;;11.40;4.97;;;8.40;93.40;;;;;;4982557;28;20019;-90
2021/04/11 05:33:54;;;;;;;10.30;4.90;;;8.40;93.40;;;;;;4982861;28;20031;-91
2021/04/11 05:36:25;;;;;;;10.53;4.70;;;8.40;93.40;;;;;;4982748;28;20098;-92
2021/04/11 05:39:00;;;;;;;11.33;4.30;;;8.30;93.30;;;;;;4982628;28;20047;-90
2021/04/11 05:41:40;;;;;;;8.77;4.00;;;8.30;93.50;;;;;;4982737;28;20053;-90
2021/04/11 05:44:29;;;;;;;9.07;4.23;;;8.30;93.40;;;;;;4982665;28;20022;-92
2021/04/11 05:46:58;;;;;;;9.15;4.40;;;8.30;93.50;;;;;;4982725;28;20015;-89
2021/04/11 05:49:31;;;;;;;8.35;3.97;;;8.30;93.50;;;;;;4982541;28;20015;-90
2021/04/11 05:52:02;;;;;;;9.23;4.27;;;8.20;93.40;;;;;;4982390;28;20019;-90
2021/04/11 05:54:38;;;;;;;7.03;3.70;;;8.20;93.40;;;;;;4982674;28;20062;-90
2021/04/11 05:57:08;;;;;;;6.83;3.80;;;8.20;93.30;;;;;;4982408;28;20007;-91
2021/04/11 05:59:49;;;;;;;8.90;4.33;;;8.10;93.50;;;;;;4982325;28;20050;-92
2021/04/11 06:02:43;;;;;;;8.30;4.00;;;8.10;93.50;;;;;;4982002;28;20022;-91
2021/04/11 06:05:28;;;;;;;8.03;3.83;;;8.10;93.40;;;;;;4984916;28;20115;-90
2021/04/11 06:08:04;;;;;;;8.73;4.33;;;8.00;93.20;;;;;;4985800;28;20019;-91
2021/04/11 06:10:39;;;;;;;10.73;4.50;;;8.00;93.30;;;;;;4985562;28;20019;-91
2021/04/11 06:13:18;;;;;;;7.23;3.60;;;7.90;93.40;;;;;;4985888;28;20035;-90
2021/04/11 06:15:59;;;;;;;8.30;4.03;;;7.90;93.40;;;;;;4985856;28;20011;-91
2021/04/11 06:18:24;;;;;;;8.83;4.03;;;7.90;93.40;;;;;;4985819;28;20019;-90
2021/04/11 06:20:53;;;;;;;10.33;3.93;;;7.80;93.40;;;;;;4985651;28;20077;-89
2021/04/11 06:23:28;;;;;;;8.43;4.13;;;7.70;93.40;;;;;;4985645;28;20042;-91
2021/04/11 06:26:12;;;;;;;9.07;4.30;;;7.70;93.50;;;;;;4985730;28;20026;-93
2021/04/11 06:29:06;;;;;;;8.00;4.23;;;7.70;93.50;;;;;;4985622;28;20021;-91
2021/04/11 06:31:41;;;;;;;8.63;4.23;;;7.60;93.60;;;;;;4985197;28;20070;-91
2021/04/11 06:34:25;;;;;;;8.17;4.13;;;7.60;93.60;;;;;;4985694;28;20018;-90
2021/04/11 06:36:55;;;;;;;9.47;4.60;;;7.60;93.40;;;;;;4985560;28;20014;-91
2021/04/11 06:39:24;;;;;;;;;;;7.70;93.40;;;;;;4985646;28;20035;-90
2021/04/11 06:42:08;;;;;;;8.60;4.37;;;7.60;93.30;;;;;;5001585;28;19894;-91
2021/04/11 06:45:05;;;;;;;10.10;4.53;;;7.50;93.40;;;;;;4985543;28;20035;-91
2021/04/11 06:47:58;;;;;;;8.70;4.60;;;7.50;93.30;;;;;;4985231;28;20015;-92
2021/04/11 06:50:48;;;;;;;10.80;4.93;;;7.40;93.40;;;;;;4985007;28;20026;-91
2021/04/11 06:53:24;;;;;;;12.03;5.10;;;7.40;93.30;;;;;;4985115;28;20019;-91
2021/04/11 06:55:59;;;;;;;10.93;5.03;;;7.40;93.30;;;;;;4985230;28;20038;-89
2021/04/11 06:59:07;;;;;;;9.33;4.80;;;7.30;93.30;;;;;;4985078;28;20050;-92
2021/04/11 07:01:48;;;;;;;10.13;4.30;;;7.30;93.40;;;;;;4985008;28;20011;-90
2021/04/11 07:04:27;;;;;;;8.90;4.30;;;7.20;93.50;;;;;;4984797;28;20011;-92
2021/04/11 07:07:27;;;;;;;8.90;3.92;;;7.20;93.50;;;;;;4984993;28;20022;-90
2021/04/11 07:10:22;;;;;;;10.30;4.70;;;7.10;93.40;;;;;;4984707;28;20050;-90
2021/04/11 07:13:00;;;;;;;11.37;4.70;;;7.10;93.50;;;;;;4984702;28;20015;-91
2021/04/11 07:15:57;;;;;;;9.87;4.20;;;7.00;93.50;;;;;;4984226;28;20015;-90
2021/04/11 07:19:08;;;;;;;10.97;4.20;;;7.00;93.60;;;;;;4984816;28;20021;-91
2021/04/11 07:21:58;;;;;;;11.63;4.50;;;6.90;93.50;;;;;;4945778;29;20087;-91
2021/04/11 07:24:53;;;;;;;9.67;4.07;;;6.90;93.70;;;;;;4984347;28;20026;-93
2021/04/11 07:27:24;;;;;;;10.00;4.10;;;6.90;93.60;;;;;;4984491;28;20074;-91
2021/04/11 07:30:15;;;;;;;10.77;4.43;;;6.90;93.40;;;;;;4984197;28;20027;-91
2021/04/11 07:32:40;;;;;;;9.70;4.40;;;6.90;93.20;;;;;;4984106;28;20019;-90
2021/04/11 07:35:31;;;;;;;11.53;4.87;;;6.80;93.30;;;;;;4984671;28;20074;-89
2021/04/11 07:38:09;;;;;;;12.20;4.73;;;6.80;93.20;;;;;;4984513;28;20011;-90
2021/04/11 07:40:44;;;;;;;11.33;5.00;;;6.80;93.30;;;;;;4984138;28;20069;-90
2021/04/11 07:43:33;;;;;;;12.17;5.20;;;6.70;93.30;;;;;;4984059;28;20019;-90
2021/04/11 07:46:28;;;;;;;12.80;5.25;;;6.70;93.30;;;;;;4984211;28;20019;-91
2021/04/11 07:49:23;;;;;;;10.80;5.00;;;6.60;93.40;;;;;;4984072;28;20025;-91
2021/04/11 07:52:07;;;;;;;11.50;5.27;;;6.70;93.40;;;;;;4983817;28;20027;-90
2021/04/11 07:54:52;;;;;;;11.63;5.00;;;6.60;93.40;;;;;;4983921;28;20015;-90
2021/04/11 07:57:49;;;;;;;12.83;5.60;;;6.70;93.20;;;;;;4984118;28;20030;-90
2021/04/11 08:00:36;;;;;;;12.23;4.47;;;6.70;93.20;;;;;;4983791;28;20015;-91
2021/04/11 08:03:08;;;;;;;11.33;4.70;;;6.70;93.10;;;;;;4983720;28;20018;-90
2021/04/11 08:06:11;;;;;;;10.80;4.40;;;6.70;93.10;;;;;;4983808;28;20042;-89
2021/04/11 08:09:02;;;;;;;10.83;4.40;;;6.60;92.80;;;;;;4983813;28;20037;-90
2021/04/11 08:11:49;;;;;;;10.37;4.70;;;6.60;93.20;;;;;;4983402;28;20027;-90
2021/04/11 08:14:50;;;;;;;11.97;5.07;;;6.60;93.20;;;;;;4983756;28;20015;-91
2021/04/11 08:17:25;;;;;;;11.97;5.50;;;6.60;93.10;;;;;;4983539;28;20043;-91
2021/04/11 08:20:17;;;;;;;13.43;5.87;;;6.60;93.10;;;;;;4983383;28;20050;-92
2021/04/11 08:22:51;;;;;;;10.43;4.40;;;6.70;93.10;;;;;;4983420;28;20058;-90
2021/04/11 08:25:17;;;;;;;10.90;4.90;;;6.70;93.00;;;;;;4983545;28;20019;-89
2021/04/11 08:28:31;;;;;;;10.97;4.90;;;6.70;93.00;;;;;;4982856;28;20022;-90
2021/04/11 08:31:22;;;;;;;10.80;4.53;;;6.60;93.10;;;;;;4968104;28;20035;-92
2021/04/11 08:33:58;;;;;;;14.70;5.40;;;6.60;93.00;;;;;;4983326;28;20019;-90
2021/04/11 08:36:43;;;;;;;10.37;4.50;;;6.60;93.00;;;;;;4983276;28;20131;-90
2021/04/11 08:39:46;;;;;;;10.20;4.50;;;6.60;93.00;;;;;;4982972;28;20035;-91
2021/04/11 08:42:49;;;;;;;10.27;3.90;;;6.60;93.00;;;;;;4968569;28;20023;-90
2021/04/11 08:45:49;;;;;;;10.07;4.30;;;6.60;92.90;;;;;;4983118;28;20011;-90
2021/04/11 08:48:23;;;;;;;9.00;4.10;;;6.50;92.90;;;;;;4983123;28;20062;-88
2021/04/11 08:50:57;;;;;;;11.30;4.70;;;6.50;92.90;;;;;;4982678;28;20110;-90
2021/04/11 08:53:43;;;;;;;10.33;4.53;;;6.50;92.80;;;;;;4983098;28;20015;-90
2021/04/11 08:56:19;;;;;;;10.13;4.63;;;6.40;92.90;;;;;;4982882;28;20018;-91
2021/04/11 08:59:04;;;;;;;12.40;5.23;;;6.40;93.00;;;;;;4983113;28;20015;-91
2021/04/11 09:01:30;;;;;;;11.47;4.77;;;6.40;93.00;;;;;;4982766;28;20015;-91
2021/04/11 09:04:18;;;;;;;11.37;5.07;;;6.40;93.00;;;;;;4982928;28;20115;-91
2021/04/11 09:07:06;;;;;;;12.50;5.38;;;6.40;93.00;;;;;;4982877;28;20084;-91
2021/04/11 09:10:11;;;;;;;12.30;5.27;;;6.30;92.90;;;;;;4982916;28;20035;-91
2021/04/11 09:12:46;;;;;;;11.27;5.30;;;6.40;92.90;;;;;;4982543;28;20064;-92
2021/04/11 09:15:28;;;;;;;14.30;5.90;;;6.40;92.80;;;;;;4982903;28;20011;-90
2021/04/11 09:18:17;;;;;;;13.17;5.87;;;6.30;92.80;;;;;;4983045;28;20015;-90
2021/04/11 09:21:24;;;;;;;15.38;7.32;;;6.20;92.90;;;;;;4982557;28;20082;-91
2021/04/11 09:24:05;;;;;;;13.10;5.87;;;6.30;92.80;;;;;;4967892;28;20019;-90
2021/04/11 09:26:45;;;;;;;10.53;4.67;;;6.20;92.90;;;;;;4982714;28;20019;-92
2021/04/11 09:29:33;;;;;;;12.70;4.93;;;6.20;92.80;;;;;;4982694;28;20030;-91
2021/04/11 09:32:17;;;;;;;12.30;4.60;;;6.20;92.80;;;;;;4982337;28;20023;-90
2021/04/11 09:35:01;;;;;;;9.27;3.73;;;6.20;92.80;;;;;;4982711;28;20034;-90
2021/04/11 09:37:54;;;;;;;9.20;3.60;;;6.20;92.60;;;;;;4982653;28;20022;-90
2021/04/11 09:40:31;;;;;;;8.33;3.60;;;6.30;92.70;;;;;;4985276;28;20141;-90
2021/04/11 09:43:29;;;;;;;8.60;3.50;;;6.30;92.70;;;;;;4986386;28;20018;-90
2021/04/11 09:46:04;;;;;;;7.13;3.07;;;6.30;92.50;;;;;;4986234;28;20018;-91
2021/04/11 09:49:07;;;;;;;6.70;3.00;;;6.30;92.50;;;;;;4986622;28;20041;-88
2021/04/11 09:52:11;;;;;;;5.47;2.43;;;6.40;92.50;;;;;;4986035;28;20023;-90
2021/04/11 09:54:51;;;;;;;6.63;2.73;;;6.30;92.20;;;;;;4986343;28;20026;-90
2021/04/11 09:57:44;;;;;;;4.73;2.20;;;6.20;92.30;;;;;;4986301;28;20019;-89
2021/04/11 10:00:22;;;;;;;9.20;2.90;;;6.30;92.30;;;;;;4986320;28;20042;-91
2021/04/11 10:02:47;;;;;;;5.07;2.43;;;6.30;92.40;;;;;;4986271;28;20024;-90
2021/04/11 10:05:36;;;;;;;5.13;2.43;;;6.30;92.40;;;;;;4986102;28;20015;-88
2021/04/11 10:08:20;;;;;;;5.20;2.27;;;6.30;92.30;;;;;;4986236;28;20026;-88
2021/04/11 10:11:13;;;;;;;3.93;2.20;;;6.30;92.20;;;;;;4985729;28;20298;-89
2021/04/11 10:14:24;;;;;;;5.77;2.60;;;6.40;92.00;;;;;;4985920;28;20082;-92
2021/04/11 10:17:15;;;;;;;5.70;2.30;;;6.40;92.00;;;;;;4967925;28;20019;-90
2021/04/11 10:20:00;;;;;;;6.23;2.13;;;6.30;92.10;;;;;;4985758;28;20046;-89
2021/04/11 10:22:37;;;;;;;6.47;2.60;;;6.40;92.10;;;;;;4985705;28;20054;-90
2021/04/11 10:25:19;;;;;;;5.40;2.50;;;6.30;92.00;;;;;;4985710;28;20018;-90
2021/04/11 10:28:09;;;;;;;4.07;1.93;;;6.30;92.00;;;;;;4985802;28;20530;-88
2021/04/11 10:30:36;;;;;;;5.83;2.30;;;6.20;92.10;;;;;;4985449;28;20031;-90
2021/04/11 10:33:06;;;;;;;5.17;2.20;;;6.20;92.20;;;;;;4985517;28;20046;-90
2021/04/11 10:35:55;;;;;;;2.77;1.70;;;6.20;92.20;;;;;;4985385;28;20107;-88
2021/04/11 10:38:30;;;;;;;5.03;1.60;;;6.20;92.20;;;;;;4980095;28;20015;-91
2021/04/11 10:41:14;;;;;;;3.13;1.80;;;6.30;92.50;;;;;;4985262;28;20054;-89
2021/04/11 10:43:52;;;;;;;3.00;2.10;;;6.30;92.00;;;;;;4985304;28;20014;-91
2021/04/11 10:46:28;;;;;;;3.67;1.83;;;6.30;92.00;;;;;;4985265;28;20015;-91
2021/04/11 10:49:20;;;;;;;5.20;1.80;;;6.30;92.00;;;;;;4985425;28;20015;-88
2021/04/11 10:52:08;;;;;;;3.47;1.70;;;6.30;92.40;;;;;;4984138;28;20102;-90
2021/04/11 10:55:16;;;;;;;5.30;1.80;;;6.30;92.00;;;;;;4985297;28;20019;-92
2021/04/11 10:57:51;;;;;;;5.07;2.00;;;6.40;91.90;;;;;;4985083;28;20026;-92
2021/04/11 11:00:50;;;;;;;9.37;2.67;;;6.40;91.90;;;;;;4985338;28;20011;-92
2021/04/11 11:03:35;;;;;;;6.45;2.28;;;6.50;91.80;;;;;;4984949;28;20058;-91
2021/04/11 11:06:06;;;;;;;2.77;1.50;;;6.50;91.70;;;;;;4985080;28;20022;-89
2021/04/11 11:09:00;;;;;;;3.30;1.63;;;6.50;91.70;;;;;;4985033;28;20023;-89
2021/04/11 11:11:47;;;;;;;3.07;1.60;;;6.50;91.60;;;;;;4984615;28;20035;-88
2021/04/11 11:14:19;;;;;;;4.90;2.10;;;6.50;91.50;;;;;;4984919;28;20021;-90
2021/04/11 11:17:03;;;;;;;3.47;1.90;;;6.60;91.50;;;;;;4984750;28;20022;-90
2021/04/11 11:19:38;;;;;;;5.70;2.20;;;6.60;91.50;;;;;;4984770;28;20035;-91
2021/04/11 11:22:21;;;;;;;5.43;1.70;;;6.60;91.40;;;;;;4984764;28;20023;-89
2021/04/11 11:25:09;;;;;;;8.17;1.90;;;6.70;91.20;;;;;;4984600;28;20042;-90
2021/04/11 11:28:00;;;;;;;3.67;1.67;;;6.70;91.10;;;;;;4984601;28;20011;-91
2021/04/11 11:30:40;;;;;;;5.80;1.60;;;6.70;90.90;;;;;;4984429;28;20042;-89
2021/04/11 11:33:29;;;;;;;3.60;1.70;;;6.70;91.10;;;;;;4984404;28;20030;-89
2021/04/11 11:36:15;;;;;;;4.80;1.80;;;6.70;90.90;;;;;;4984383;28;20015;-90
2021/04/11 11:39:12;;;;;;;5.30;1.70;;;6.70;90.80;;;;;;4984163;28;20041;-89
2021/04/11 11:42:16;;;;;;;7.47;2.00;;;6.70;90.40;;;;;;4984320;28;20003;-92
2021/04/11 11:44:55;;;;;;;3.83;1.70;;;6.70;90.70;;;;;;4969346;28;20019;-90
2021/04/11 11:47:34;;;;;;;6.40;1.50;;;6.70;90.80;;;;;;4984082;28;20019;-91
2021/04/11 11:50:16;;;;;;;6.73;1.50;;;6.70;90.80;;;;;;4983996;28;20094;-89
2021/04/11 11:53:00;;;;;;;4.23;1.50;;;6.70;90.50;;;;;;4984023;28;20029;-91
2021/04/11 11:55:31;;;;;;;5.40;1.70;;;6.70;90.70;;;;;;4983994;28;20029;-90
2021/04/11 11:58:16;;;;;;;7.67;2.00;;;6.60;90.50;;;;;;4983883;28;20026;-89
2021/04/11 12:00:55;;;;;;;5.87;1.60;;;6.60;90.50;;;;;;4983930;28;20011;-89
2021/04/11 12:03:30;;;;;;;7.65;1.83;;;6.60;90.50;;;;;;4983714;28;20011;-89
2021/04/11 12:06:22;;;;;;;4.50;1.40;;;6.60;90.50;;;;;;4983747;28;20035;-91
2021/04/11 12:09:00;;;;;;;7.37;1.90;;;6.60;90.60;;;;;;4983710;28;20090;-90
2021/04/11 12:11:26;;;;;;;2.97;1.37;;;6.60;90.40;;;;;;4983716;28;20034;-89
2021/04/11 12:14:10;;;;;;;8.33;1.60;;;6.60;90.40;;;;;;4983632;28;20015;-89
2021/04/11 12:16:44;;;;;;;5.23;1.50;;;6.60;90.50;;;;;;4983609;28;20049;-90
2021/04/11 12:19:19;;;;;;;5.60;2.03;;;6.60;90.40;;;;;;4983516;28;20091;-89
2021/04/11 12:22:11;;;;;;;5.00;1.40;;;6.50;90.40;;;;;;4983616;28;20014;-90
2021/04/11 12:24:48;;;;;;;7.67;1.70;;;6.60;90.50;;;;;;4980401;28;20026;-90
2021/04/11 12:27:23;;;;;;;7.90;1.83;;;6.50;90.60;;;;;;4983412;28;20019;-91
2021/04/11 12:29:50;;;;;;;5.63;1.73;;;6.50;90.70;;;;;;4983346;28;20042;-92
2021/04/11 12:32:31;;;;;;;3.80;1.57;;;6.50;90.60;;;;;;4983398;28;20026;-90
2021/04/11 12:35:19;;;;;;;3.63;1.53;;;6.50;90.70;;;;;;4983464;28;20007;-91
2021/04/11 12:37:56;;;;;;;8.40;2.13;;;6.50;90.60;;;;;;4983249;28;20035;-91
2021/04/11 12:40:44;;;;;;;5.17;1.40;;;6.50;90.70;;;;;;4983264;28;20054;-92
2021/04/11 12:43:45;;;;;;;5.80;1.70;;;6.50;90.70;;;;;;4983227;28;20011;-91
2021/04/11 12:46:35;;;;;;;8.47;1.90;;;6.50;90.40;;;;;;4983285;28;20111;-89
2021/04/11 12:49:15;;;;;;;4.13;1.60;;;6.50;90.60;;;;;;4983179;28;20034;-91
2021/04/11 12:52:04;;;;;;;5.00;1.70;;;6.50;90.50;;;;;;4983226;28;20027;-90
2021/04/11 12:54:32;;;;;;;;;;;6.60;90.50;;;;;;4983462;28;20041;-90
2021/04/11 12:57:04;;;;;;;3.80;1.43;;;6.50;90.40;;;;;;4999293;28;19894;-91
2021/04/11 12:59:56;;;;;;;4.20;1.37;;;6.50;90.50;;;;;;4982989;28;20358;-91
2021/04/11 13:02:39;;;;;;;6.20;1.83;;;6.50;90.30;;;;;;4983252;28;20082;-91
2021/04/11 13:05:34;;;;;;;7.30;2.30;;;6.50;90.30;;;;;;4982999;28;20026;-89
2021/04/11 13:08:25;;;;;;;7.03;1.80;;;6.50;90.30;;;;;;4968036;28;20030;-91
2021/04/11 13:11:06;;;;;;;6.13;1.80;;;6.50;90.20;;;;;;4983037;28;20027;-91
2021/04/11 13:13:44;;;;;;;7.50;1.93;;;6.50;90.30;;;;;;4982486;28;20038;-90
2021/04/11 13:16:23;;;;;;;6.60;1.70;;;6.50;90.30;;;;;;4982997;28;20015;-92
2021/04/11 13:19:06;;;;;;;5.07;1.60;;;6.50;90.30;;;;;;4982885;28;20015;-92
2021/04/11 13:21:41;;;;;;;7.93;1.97;;;6.50;90.20;;;;;;4983046;28;20007;-93
2021/04/11 13:24:22;;;;;;;5.53;1.90;;;6.50;90.20;;;;;;4983016;28;20018;-91
2021/04/11 13:26:51;;;;;;;6.27;1.83;;;6.50;90.20;;;;;;4982879;28;20034;-91
2021/04/11 13:29:27;;;;;;;6.85;1.83;;;6.50;90.20;;;;;;4982981;28;20050;-91
2021/04/11 13:32:16;;;;;;;7.67;1.87;;;6.50;90.20;;;;;;4982871;28;20110;-91
2021/04/11 13:34:45;;;;;;;7.97;1.70;;;6.50;90.10;;;;;;4982934;28;20037;-90
2021/04/11 13:37:15;;;;;;;5.43;1.73;;;6.50;90.10;;;;;;4982890;28;20018;-92
2021/04/11 13:39:45;;;;;;;7.40;2.63;;;6.60;90.00;;;;;;4982456;28;20046;-93
2021/04/11 13:42:44;;;;;;;4.13;1.83;;;6.60;90.10;;;;;;4982380;28;20122;-92
2021/04/11 13:45:16;;;;;;;8.40;2.00;;;6.60;89.90;;;;;;4982573;28;20038;-91
2021/04/11 13:48:03;;;;;;;7.23;2.20;;;6.60;90.00;;;;;;4982545;28;20015;-91
2021/04/11 13:50:41;;;;;;;3.90;1.70;;;6.60;90.00;;;;;;4982666;28;20034;-92
2021/04/11 13:53:18;;;;;;;5.23;1.73;;;6.60;89.70;;;;;;4982753;28;20035;-92
2021/04/11 13:56:07;;;;;;;6.40;1.80;;;6.60;89.50;;;;;;4982631;28;20019;-91